createdAt,value
2019-04-21T00:02:32.265Z,15.70
2019-04-21T00:05:16.567Z,15.70
2019-04-21T00:07:49.462Z,15.70
2019-04-21T00:10:18.691Z,15.60
2019-04-21T00:12:49.456Z,15.60
2019-04-21T00:15:09.754Z,15.60
2019-04-21T00:17:30.334Z,15.50
2019-04-21T00:20:15.743Z,15.60
2019-04-21T00:22:44.445Z,15.50
2019-04-21T00:25:19.939Z,15.50
2019-04-21T00:27:46.447Z,15.50
2019-04-21T00:30:32.974Z,15.50
2019-04-21T00:32:48.762Z,15.40
2019-04-21T00:35:11.785Z,15.40
2019-04-21T00:37:53.441Z,15.40
2019-04-21T00:40:30.356Z,15.40
2019-04-21T00:42:59.986Z,15.40
2019-04-21T00:45:23.385Z,15.40
2019-04-21T00:48:03.921Z,15.40
2019-04-21T00:50:40.466Z,15.40
2019-04-21T00:53:30.076Z,15.30
2019-04-21T00:55:57.333Z,15.30
2019-04-21T00:58:28.368Z,15.30
2019-04-21T01:00:58.866Z,15.30
2019-04-21T01:03:48.811Z,15.20
2019-04-21T01:05:58.952Z,15.20
2019-04-21T01:08:31.293Z,15.20
2019-04-21T01:10:54.915Z,15.20
2019-04-21T01:13:39.485Z,15.10
2019-04-21T01:15:59.569Z,15.10
2019-04-21T01:18:34.940Z,15.10
2019-04-21T01:20:42.339Z,15.10
2019-04-21T01:23:12.566Z,15.00
2019-04-21T01:25:55.693Z,15.00
2019-04-21T01:28:29.035Z,14.90
2019-04-21T01:31:07.196Z,14.90
2019-04-21T01:33:38.543Z,14.90
2019-04-21T01:36:03.858Z,14.90
2019-04-21T01:38:40.068Z,14.80
2019-04-21T01:41:13.318Z,14.80
2019-04-21T01:43:39.514Z,14.80
2019-04-21T01:46:11.047Z,14.80
2019-04-21T01:48:34.484Z,14.70
2019-04-21T01:51:11.520Z,14.70
2019-04-21T01:53:54.858Z,14.70
2019-04-21T01:56:46.583Z,14.60
2019-04-21T01:59:03.755Z,14.60
2019-04-21T02:01:46.062Z,14.50
2019-04-21T02:04:24.131Z,14.60
2019-04-21T02:06:55.359Z,14.60
2019-04-21T02:09:14.897Z,14.50
2019-04-21T02:11:50.480Z,14.50
2019-04-21T02:14:23.546Z,14.50
2019-04-21T02:16:54.320Z,14.50
2019-04-21T02:19:21.601Z,14.50
2019-04-21T02:21:46.299Z,14.50
2019-04-21T02:24:30.141Z,14.40
2019-04-21T02:26:54.115Z,14.40
2019-04-21T02:29:31.384Z,14.40
2019-04-21T02:34:47.138Z,14.40
2019-04-21T02:37:27.169Z,14.30
2019-04-21T02:39:40.809Z,14.20
2019-04-21T02:44:46.285Z,14.10
2019-04-21T02:47:09.541Z,14.10
2019-04-21T02:52:20.100Z,14.10
2019-04-21T02:57:17.851Z,14.00
2019-04-21T03:02:59.144Z,14.00
2019-04-21T03:05:34.501Z,14.00
2019-04-21T03:07:55.527Z,14.00
2019-04-21T03:10:24.677Z,13.90
2019-04-21T03:12:56.092Z,13.90
2019-04-21T03:15:33.220Z,14.00
2019-04-21T03:18:00.314Z,14.00
2019-04-21T03:23:03.067Z,13.90
2019-04-21T03:25:41.268Z,13.90
2019-04-21T03:28:14.111Z,13.90
2019-04-21T03:30:59.585Z,13.80
2019-04-21T03:38:13.787Z,13.70
2019-04-21T03:43:04.455Z,13.60
2019-04-21T03:45:38.559Z,13.60
2019-04-21T03:48:13.796Z,13.60
2019-04-21T03:50:33.683Z,13.50
2019-04-21T03:53:11.496Z,13.50
2019-04-21T03:58:26.206Z,13.40
2019-04-21T04:01:02.393Z,13.40
2019-04-21T04:04:00.753Z,13.30
2019-04-21T04:06:24.552Z,13.30
2019-04-21T04:09:26.475Z,13.20
2019-04-21T04:11:53.007Z,13.10
2019-04-21T04:14:24.980Z,13.10
2019-04-21T04:19:37.888Z,12.90
2019-04-21T04:27:01.935Z,12.80
2019-04-21T04:29:24.602Z,12.80
2019-04-21T04:31:47.600Z,12.70
2019-04-21T04:37:05.995Z,12.60
2019-04-21T04:45:05.671Z,12.50
2019-04-21T04:47:44.654Z,12.50
2019-04-21T04:49:51.676Z,12.50
2019-04-21T04:57:49.167Z,12.40
2019-04-21T05:00:15.670Z,12.40
2019-04-21T05:05:13.721Z,12.40
2019-04-21T05:10:00.025Z,12.40
2019-04-21T05:12:30.977Z,12.40
2019-04-21T05:22:47.651Z,12.50
2019-04-21T05:24:59.464Z,12.50
2019-04-21T05:27:29.519Z,12.50
2019-04-21T05:30:17.586Z,12.50
2019-04-21T05:32:45.177Z,12.60
2019-04-21T05:35:36.403Z,12.60
2019-04-21T05:38:10.604Z,12.60
2019-04-21T05:40:36.547Z,12.70
2019-04-21T05:43:17.167Z,12.70
2019-04-21T05:45:50.240Z,12.70
2019-04-21T05:48:28.861Z,12.70
2019-04-21T05:50:50.901Z,12.70
2019-04-21T05:53:31.001Z,12.70
2019-04-21T05:55:57.112Z,12.70
2019-04-21T05:58:30.098Z,12.70
2019-04-21T06:06:08.667Z,12.70
2019-04-21T06:08:33.013Z,12.70
2019-04-21T06:11:07.262Z,12.70
2019-04-21T06:13:43.896Z,12.70
2019-04-21T06:16:21.693Z,12.80
2019-04-21T06:18:44.475Z,12.80
2019-04-21T06:23:36.703Z,12.90
2019-04-21T06:28:40.209Z,13.00
2019-04-21T06:33:43.213Z,13.10
2019-04-21T06:36:47.483Z,13.10
2019-04-21T06:39:12.053Z,13.10
2019-04-21T06:44:08.268Z,13.20
2019-04-21T06:49:03.102Z,13.30
2019-04-21T06:51:35.742Z,13.30
2019-04-21T06:54:09.559Z,13.30
2019-04-21T06:56:43.842Z,13.40
2019-04-21T06:59:20.767Z,13.40
2019-04-21T07:01:44.614Z,13.50
2019-04-21T07:04:21.031Z,13.70
2019-04-21T07:11:44.982Z,13.80
2019-04-21T07:16:52.955Z,14.20
2019-04-21T07:19:25.700Z,14.10
2019-04-21T07:21:45.519Z,14.10
2019-04-21T07:26:51.249Z,14.40
2019-04-21T07:29:22.021Z,14.30
2019-04-21T07:31:59.254Z,14.40
2019-04-21T07:34:28.851Z,14.50
2019-04-21T07:39:18.525Z,14.60
2019-04-21T07:41:48.423Z,14.70
2019-04-21T07:44:18.112Z,14.80
2019-04-21T07:46:46.419Z,15.00
2019-04-21T07:49:46.668Z,15.00
2019-04-21T07:52:28.610Z,15.10
2019-04-21T07:55:08.002Z,15.20
2019-04-21T07:57:30.394Z,15.30
2019-04-21T08:00:11.948Z,15.30
2019-04-21T08:02:32.412Z,15.30
2019-04-21T08:05:05.909Z,15.40
2019-04-21T08:07:32.335Z,15.50
2019-04-21T08:09:57.042Z,15.50
2019-04-21T08:12:27.581Z,15.60
2019-04-21T08:15:13.627Z,15.60
2019-04-21T08:17:31.958Z,15.70
2019-04-21T08:20:02.763Z,15.70
2019-04-21T08:22:32.102Z,15.70
2019-04-21T08:25:03.250Z,15.80
2019-04-21T08:27:41.785Z,15.90
2019-04-21T08:30:04.452Z,16.00
2019-04-21T08:32:57.242Z,16.00
2019-04-21T08:35:48.464Z,16.10
2019-04-21T08:37:37.043Z,16.30
2019-04-21T08:42:40.780Z,16.40
2019-04-21T08:45:15.066Z,16.50
2019-04-21T08:47:48.989Z,16.60
2019-04-21T08:50:15.340Z,16.70
2019-04-21T08:52:53.661Z,16.80
2019-04-21T08:55:25.305Z,17.00
2019-04-21T08:58:15.204Z,17.00
2019-04-21T09:01:04.075Z,17.00
2019-04-21T09:03:49.544Z,17.10
2019-04-21T09:06:28.747Z,17.20
2019-04-21T09:08:55.467Z,17.20
2019-04-21T09:11:16.282Z,17.20
2019-04-21T09:13:47.763Z,17.30
2019-04-21T09:16:15.373Z,17.40
2019-04-21T09:18:45.219Z,17.50
2019-04-21T09:21:25.679Z,17.50
2019-04-21T09:23:50.866Z,17.70
2019-04-21T09:26:25.253Z,17.70
2019-04-21T09:28:49.022Z,17.70
2019-04-21T09:31:08.976Z,17.80
2019-04-21T09:33:45.432Z,17.90
2019-04-21T09:36:14.339Z,18.00
2019-04-21T09:38:43.528Z,18.10
2019-04-21T09:41:14.305Z,18.10
2019-04-21T09:43:46.642Z,18.20
2019-04-21T09:46:11.910Z,18.30
2019-04-21T09:48:51.425Z,18.40
2019-04-21T09:51:11.496Z,18.50
2019-04-21T09:53:42.259Z,18.50
2019-04-21T09:56:16.289Z,18.60
2019-04-21T09:58:46.790Z,18.70
2019-04-21T10:01:20.608Z,18.70
2019-04-21T10:03:48.364Z,18.80
2019-04-21T10:06:16.110Z,18.90
2019-04-21T10:08:48.525Z,19.00
2019-04-21T10:11:16.470Z,19.10
2019-04-21T10:13:46.338Z,19.20
2019-04-21T10:16:34.189Z,19.20
2019-04-21T10:19:04.610Z,19.30
2019-04-21T10:21:33.958Z,19.60
2019-04-21T10:24:04.096Z,19.60
2019-04-21T10:26:33.373Z,19.60
2019-04-21T10:29:08.634Z,19.60
2019-04-21T10:31:34.621Z,19.70
2019-04-21T10:34:03.683Z,19.70
2019-04-21T10:36:33.200Z,19.80
2019-04-21T10:39:02.367Z,19.80
2019-04-21T10:41:32.988Z,19.90
2019-04-21T10:44:03.124Z,20.10
2019-04-21T10:46:32.926Z,20.30
2019-04-21T10:49:02.067Z,20.20
2019-04-21T10:51:30.997Z,20.30
2019-04-21T10:53:59.966Z,20.30
2019-04-21T10:56:35.058Z,20.40
2019-04-21T10:59:00.340Z,20.40
2019-04-21T11:01:31.530Z,20.60
2019-04-21T11:04:23.566Z,20.70
2019-04-21T11:06:50.651Z,20.70
2019-04-21T11:09:20.100Z,20.80
2019-04-21T11:11:51.569Z,20.90
2019-04-21T11:14:21.010Z,20.90
2019-04-21T11:16:52.851Z,21.10
2019-04-21T11:19:22.037Z,21.10
2019-04-21T11:21:52.473Z,21.10
2019-04-21T11:24:23.011Z,21.20
2019-04-21T11:26:52.143Z,21.30
2019-04-21T11:29:21.288Z,21.40
2019-04-21T11:31:51.368Z,21.40
2019-04-21T11:34:21.119Z,21.50
2019-04-21T11:36:50.532Z,21.60
2019-04-21T11:39:33.515Z,21.60
2019-04-21T11:41:57.444Z,21.60
2019-04-21T11:44:27.006Z,21.70
2019-04-21T11:46:56.631Z,21.80
2019-04-21T11:49:27.607Z,21.80
2019-04-21T11:51:56.554Z,21.90
2019-04-21T11:54:26.732Z,21.90
2019-04-21T11:56:56.917Z,21.90
2019-04-21T11:59:26.087Z,22.10
2019-04-21T12:01:55.127Z,22.10
2019-04-21T12:04:25.503Z,22.10
2019-04-21T12:06:55.925Z,22.20
2019-04-21T12:09:27.243Z,22.20
2019-04-21T12:11:57.048Z,22.20
2019-04-21T12:14:26.050Z,22.20
2019-04-21T12:16:55.180Z,22.20
2019-04-21T12:19:25.027Z,22.30
2019-04-21T12:22:05.019Z,22.30
2019-04-21T12:24:31.224Z,22.50
2019-04-21T12:27:00.060Z,22.40
2019-04-21T12:29:29.017Z,22.40
2019-04-21T12:32:33.996Z,22.50
2019-04-21T12:35:03.887Z,22.50
2019-04-21T12:37:33.082Z,22.50
2019-04-21T12:40:03.292Z,22.50
2019-04-21T12:42:32.895Z,22.60
2019-04-21T12:45:01.805Z,22.60
2019-04-21T12:47:32.118Z,22.60
2019-04-21T12:50:02.608Z,22.60
2019-04-21T12:52:31.891Z,22.70
2019-04-21T12:55:01.701Z,22.60
2019-04-21T12:57:31.876Z,22.70
2019-04-21T13:00:02.911Z,22.70
2019-04-21T13:02:33.697Z,22.80
2019-04-21T13:05:03.881Z,22.90
2019-04-21T13:07:33.222Z,22.90
2019-04-21T13:10:04.361Z,22.90
2019-04-21T13:12:33.405Z,22.90
2019-04-21T13:15:04.177Z,22.90
2019-04-21T13:17:33.701Z,23.00
2019-04-21T13:20:03.457Z,23.00
2019-04-21T13:22:32.449Z,23.10
2019-04-21T13:25:02.382Z,23.20
2019-04-21T13:27:31.487Z,23.20
2019-04-21T13:30:00.553Z,23.30
2019-04-21T13:32:29.499Z,23.30
2019-04-21T13:34:59.038Z,23.20
2019-04-21T13:37:28.062Z,23.20
2019-04-21T13:40:34.207Z,23.20
2019-04-21T13:42:48.533Z,23.30
2019-04-21T13:45:16.286Z,23.30
2019-04-21T13:47:46.241Z,23.30
2019-04-21T13:50:17.253Z,23.40
2019-04-21T13:52:46.838Z,23.40
2019-04-21T13:55:16.130Z,23.50
2019-04-21T13:57:46.479Z,23.40
2019-04-21T14:00:17.247Z,23.60
2019-04-21T14:02:46.977Z,23.70
2019-04-21T14:05:18.126Z,23.60
2019-04-21T14:07:48.168Z,23.60
2019-04-21T14:10:17.916Z,23.80
2019-04-21T14:12:48.786Z,24.00
2019-04-21T14:15:20.128Z,24.00
2019-04-21T14:17:53.096Z,24.50
2019-04-21T14:20:22.397Z,25.20
2019-04-21T14:22:51.916Z,25.50
2019-04-21T14:25:21.671Z,25.80
2019-04-21T14:27:52.574Z,26.30
2019-04-21T14:30:22.825Z,26.70
2019-04-21T14:32:52.091Z,27.00
2019-04-21T14:35:21.080Z,27.30
2019-04-21T14:37:56.535Z,27.40
2019-04-21T14:40:27.746Z,27.50
2019-04-21T14:42:56.285Z,27.70
2019-04-21T14:45:36.674Z,27.90
2019-04-21T14:48:25.280Z,28.40
2019-04-21T14:51:13.192Z,28.80
2019-04-21T14:53:59.680Z,29.20
2019-04-21T14:56:29.261Z,30.50
2019-04-21T14:58:59.491Z,30.50
2019-04-21T15:01:29.274Z,31.00
2019-04-21T15:03:59.820Z,31.20
2019-04-21T15:06:29.553Z,31.90
2019-04-21T15:08:58.618Z,31.90
2019-04-21T15:11:27.646Z,32.10
2019-04-21T15:13:57.855Z,31.70
2019-04-21T15:16:26.941Z,31.50
2019-04-21T15:18:56.777Z,31.50
2019-04-21T15:21:25.888Z,30.30
2019-04-21T15:23:56.267Z,30.30
2019-04-21T15:26:26.306Z,30.70
2019-04-21T15:28:55.294Z,30.70
2019-04-21T15:31:30.559Z,30.80
2019-04-21T15:33:55.122Z,31.40
2019-04-21T15:36:25.043Z,31.90
2019-04-21T15:38:54.221Z,31.60
2019-04-21T15:41:24.668Z,31.60
2019-04-21T15:43:54.371Z,31.60
2019-04-21T15:46:24.739Z,31.60
2019-04-21T15:48:55.047Z,31.50
2019-04-21T15:51:24.176Z,31.50
2019-04-21T15:53:53.482Z,31.50
2019-04-21T15:56:31.057Z,30.80
2019-04-21T16:01:56.702Z,30.10
2019-04-21T16:04:25.860Z,30.40
2019-04-21T16:06:55.514Z,30.60
2019-04-21T16:09:26.889Z,30.50
2019-04-21T16:11:57.837Z,30.60
2019-04-21T16:14:27.100Z,30.70
2019-04-21T16:16:57.090Z,30.90
2019-04-21T16:19:27.212Z,31.20
2019-04-21T16:21:56.819Z,31.30
2019-04-21T16:24:27.256Z,31.30
2019-04-21T16:26:59.927Z,31.40
2019-04-21T16:29:27.593Z,31.60
2019-04-21T16:31:57.349Z,31.70
2019-04-21T16:34:39.031Z,31.50
2019-04-21T16:36:57.282Z,31.40
2019-04-21T16:39:27.361Z,31.00
2019-04-21T16:41:56.383Z,30.70
2019-04-21T16:44:25.435Z,30.70
2019-04-21T16:46:55.726Z,30.40
2019-04-21T16:49:25.420Z,30.00
2019-04-21T16:52:25.962Z,30.10
2019-04-21T16:55:00.248Z,30.30
2019-04-21T16:57:42.145Z,30.40
2019-04-21T17:00:29.016Z,30.20
2019-04-21T17:02:50.397Z,30.00
2019-04-21T17:05:20.408Z,30.10
2019-04-21T17:07:49.574Z,30.30
2019-04-21T17:10:20.257Z,30.30
2019-04-21T17:12:49.603Z,30.20
2019-04-21T17:15:37.547Z,29.80
2019-04-21T17:18:16.210Z,29.80
2019-04-21T17:20:41.153Z,29.90
2019-04-21T17:23:03.918Z,29.90
2019-04-21T17:25:37.202Z,30.00
2019-04-21T17:28:07.796Z,30.00
2019-04-21T17:30:36.895Z,30.10
2019-04-21T17:33:11.204Z,30.10
2019-04-21T17:35:38.540Z,30.00
2019-04-21T17:38:09.855Z,29.90
2019-04-21T17:40:39.962Z,29.90
2019-04-21T17:45:39.642Z,29.90
2019-04-21T17:48:13.918Z,29.70
2019-04-21T17:50:55.420Z,29.50
2019-04-21T17:53:36.340Z,29.50
2019-04-21T17:56:24.659Z,29.20
2019-04-21T17:58:52.676Z,28.80
2019-04-21T18:01:25.122Z,28.50
2019-04-21T18:04:01.449Z,28.30
2019-04-21T18:06:25.723Z,28.20
2019-04-21T18:09:09.182Z,28.00
2019-04-21T18:11:29.054Z,28.00
2019-04-21T18:13:42.082Z,27.70
2019-04-21T18:16:22.654Z,27.30
2019-04-21T18:18:42.095Z,27.00
2019-04-21T18:21:26.943Z,26.70
2019-04-21T18:24:07.356Z,26.30
2019-04-21T18:26:40.551Z,25.50
2019-04-21T18:29:01.213Z,25.40
2019-04-21T18:31:36.443Z,25.10
2019-04-21T18:34:25.320Z,24.90
2019-04-21T18:36:59.138Z,24.40
2019-04-21T18:39:55.888Z,24.30
2019-04-21T18:42:42.183Z,23.90
2019-04-21T18:45:49.000Z,23.80
2019-04-21T18:48:07.468Z,23.30
2019-04-21T18:50:47.835Z,23.10
2019-04-21T18:53:23.797Z,22.70
2019-04-21T18:55:49.121Z,22.50
2019-04-21T18:58:15.707Z,22.30
2019-04-21T19:00:46.007Z,22.20
2019-04-21T19:03:19.905Z,22.00
2019-04-21T19:05:52.091Z,21.90
2019-04-21T19:08:34.481Z,21.80
2019-04-21T19:11:08.231Z,21.70
2019-04-21T19:13:59.915Z,21.50
2019-04-21T19:16:28.415Z,21.50
2019-04-21T19:19:20.917Z,21.30
2019-04-21T19:21:10.068Z,21.20
2019-04-21T19:24:01.731Z,21.10
2019-04-21T19:26:23.374Z,20.90
2019-04-21T19:28:47.263Z,20.80
2019-04-21T19:31:17.285Z,20.70
2019-04-21T19:33:36.157Z,20.70
2019-04-21T19:35:59.251Z,20.60
2019-04-21T19:38:35.031Z,20.50
2019-04-21T19:41:15.819Z,20.40
2019-04-21T19:43:45.710Z,20.30
2019-04-21T19:46:19.812Z,20.20
2019-04-21T19:48:56.648Z,20.00
2019-04-21T19:51:18.046Z,20.00
2019-04-21T19:53:44.359Z,19.80
2019-04-21T19:56:03.759Z,19.80
2019-04-21T19:58:38.073Z,19.70
2019-04-21T20:01:03.603Z,19.60
2019-04-21T20:03:32.686Z,19.50
2019-04-21T20:06:11.789Z,19.30
2019-04-21T20:08:46.696Z,19.30
2019-04-21T20:11:20.216Z,19.20
2019-04-21T20:14:13.811Z,19.10
2019-04-21T20:16:23.094Z,18.90
2019-04-21T20:18:43.599Z,18.80
2019-04-21T20:21:08.022Z,18.80
2019-04-21T20:23:39.706Z,18.70
2019-04-21T20:26:10.087Z,18.70
2019-04-21T20:28:49.167Z,18.70
2019-04-21T20:31:23.374Z,18.80
2019-04-21T20:34:01.045Z,18.90
2019-04-21T20:36:35.359Z,18.90
2019-04-21T20:38:51.539Z,18.90
2019-04-21T20:41:29.795Z,18.90
2019-04-21T20:44:01.036Z,18.90
2019-04-21T20:46:35.121Z,18.90
2019-04-21T20:49:00.054Z,18.80
2019-04-21T20:51:36.248Z,18.80
2019-04-21T20:53:59.150Z,18.80
2019-04-21T20:56:34.929Z,18.80
2019-04-21T20:59:07.510Z,18.70
2019-04-21T21:01:34.872Z,18.60
2019-04-21T21:04:02.020Z,18.60
2019-04-21T21:06:36.160Z,18.60
2019-04-21T21:09:06.117Z,18.60
2019-04-21T21:11:36.359Z,18.50
2019-04-21T21:14:11.902Z,18.40
2019-04-21T21:16:46.163Z,18.40
2019-04-21T21:19:18.225Z,18.30
2019-04-21T21:21:39.984Z,18.20
2019-04-21T21:24:08.737Z,18.00
2019-04-21T21:26:47.145Z,17.80
2019-04-21T21:29:18.463Z,17.80
2019-04-21T21:31:45.994Z,17.80
2019-04-21T21:34:25.890Z,17.80
2019-04-21T21:36:50.718Z,17.60
2019-04-21T21:39:15.776Z,17.50
2019-04-21T21:41:35.909Z,17.60
2019-04-21T21:44:07.403Z,17.50
2019-04-21T21:46:44.148Z,17.40
2019-04-21T21:49:13.378Z,17.40
2019-04-21T21:51:44.990Z,17.40
2019-04-21T21:54:04.865Z,17.30
2019-04-21T21:56:34.385Z,17.20
2019-04-21T21:59:11.757Z,17.20
2019-04-21T22:01:38.863Z,17.10
2019-04-21T22:04:13.102Z,17.10
2019-04-21T22:06:45.125Z,17.00
2019-04-21T22:09:10.342Z,17.00
2019-04-21T22:11:40.145Z,16.90
2019-04-21T22:14:13.267Z,16.80
2019-04-21T22:16:49.329Z,16.70
2019-04-21T22:19:29.796Z,16.70
2019-04-21T22:22:01.015Z,16.50
2019-04-21T22:24:26.821Z,16.40
2019-04-21T22:26:43.271Z,16.50
2019-04-21T22:29:13.833Z,16.10
2019-04-21T22:34:16.308Z,16.00
2019-04-21T22:36:53.830Z,16.00
2019-04-21T22:39:37.546Z,15.90
2019-04-21T22:41:48.865Z,16.00
2019-04-21T22:44:18.757Z,15.90
2019-04-21T22:46:58.127Z,15.90
2019-04-21T22:49:19.954Z,15.90
2019-04-21T22:51:51.837Z,15.80
2019-04-21T22:54:26.829Z,15.80
2019-04-21T22:56:57.130Z,15.70
2019-04-21T22:59:24.345Z,15.70
2019-04-21T23:01:52.642Z,15.70
2019-04-21T23:04:26.615Z,15.70
2019-04-21T23:06:59.326Z,15.80
2019-04-21T23:09:24.695Z,15.80
2019-04-21T23:11:56.641Z,15.80
2019-04-21T23:14:27.951Z,15.70
2019-04-21T23:17:21.165Z,15.70
2019-04-21T23:19:42.225Z,15.70
2019-04-21T23:22:18.876Z,15.70
2019-04-21T23:24:51.708Z,15.70
2019-04-21T23:27:17.135Z,15.70
2019-04-21T23:32:16.198Z,15.60
2019-04-21T23:34:36.864Z,15.70
2019-04-21T23:37:10.560Z,15.70
2019-04-21T23:39:37.121Z,15.70
2019-04-21T23:42:06.395Z,15.70
2019-04-21T23:44:42.816Z,15.70
2019-04-21T23:47:10.169Z,15.70
2019-04-21T23:49:48.245Z,15.70
2019-04-21T23:52:10.950Z,15.70
2019-04-21T23:54:38.950Z,15.60
2019-04-21T23:57:11.891Z,15.60
2019-04-21T23:59:44.735Z,15.60
